CPX429 Details

Departure: Portland International Jetport (KPWM)
Arrival: Washington Dulles International Airport (KIAD) at N/A
Route: NUBLE3 BAF HYPER7
Notes: LOBSTER KING


Current Weather Information
KPWM 191551Z 17007KT 10SM BKN008 24/21 A2994 RMK AO2 SLP138 T02390206
KIAD 191552Z VRB04KT 10SM FEW140 SCT250 32/21 A3002 RMK AO2 SLP163 T03170206